Time,TemperatureF,DewpointF,PressureIn,WindDirection,WindDirectionDegrees,WindSpeedMPH,WindSpeedGustMPH,Humidity,HourlyPrecipIn,Conditions,Clouds,dailyrainin,SoftwareType,DateUTC
2013-02-12 00:02:00,55.7,55.1,30.04,NNE,28,2.0,4.0,98,0.00,,,0.00,Wunderground v.1.15,2013-02-12 06:02:00,
2013-02-12 00:07:00,55.7,55.1,30.04,NE,37,2.0,4.0,98,0.00,,,0.00,Wunderground v.1.15,2013-02-12 06:07:00,
2013-02-12 00:12:00,55.7,55.1,30.03,NNE,13,2.0,3.0,98,0.00,,,0.00,Wunderground v.1.15,2013-02-12 06:12:00,
2013-02-12 00:17:00,55.7,55.1,30.03,NE,37,2.0,3.0,98,0.00,,,0.00,Wunderground v.1.15,2013-02-12 06:17:00,
2013-02-12 00:22:00,55.7,55.1,30.03,NNE,30,2.0,2.0,98,0.00,,,0.00,Wunderground v.1.15,2013-02-12 06:22:00,
2013-02-12 00:27:00,55.6,55.0,30.03,NNE,21,1.0,2.0,98,0.00,,,0.00,Wunderground v.1.15,2013-02-12 06:27:00,
2013-02-12 00:32:00,55.6,55.0,30.04,NNE,26,2.0,3.0,98,0.00,,,0.00,Wunderground v.1.15,2013-02-12 06:32:00,
2013-02-12 00:37:00,55.6,55.0,30.04,NNE,18,3.0,3.0,98,0.00,,,0.00,Wunderground v.1.15,2013-02-12 06:37:00,
2013-02-12 00:42:00,55.6,55.0,30.04,NNE,32,3.0,7.0,98,0.00,,,0.00,Wunderground v.1.15,2013-02-12 06:42:00,
2013-02-12 00:47:00,55.6,55.0,30.04,NNE,28,3.0,7.0,98,0.00,,,0.01,Wunderground v.1.15,2013-02-12 06:47:00,
2013-02-12 00:57:00,55.6,55.0,30.05,NE,52,3.0,3.0,98,0.00,,,0.01,Wunderground v.1.15,2013-02-12 06:57:00,
2013-02-12 01:02:00,55.6,55.0,30.05,NE,36,3.0,5.0,98,0.00,,,0.01,Wunderground v.1.15,2013-02-12 07:02:00,
2013-02-12 01:07:00,55.5,54.9,30.06,NNE,21,3.0,5.0,98,0.00,,,0.01,Wunderground v.1.15,2013-02-12 07:07:00,
2013-02-12 01:12:00,55.5,54.9,30.06,NE,42,3.0,7.0,98,0.00,,,0.01,Wunderground v.1.15,2013-02-12 07:12:00,
2013-02-12 01:17:00,55.5,54.9,30.05,NNE,22,4.0,7.0,98,0.00,,,0.01,Wunderground v.1.15,2013-02-12 07:17:00,
2013-02-12 01:23:00,55.5,54.9,30.05,NNE,13,4.0,4.0,98,0.00,,,0.01,Wunderground v.1.15,2013-02-12 07:23:00,
2013-02-12 01:28:00,55.5,54.9,30.05,North,5,3.0,4.0,98,0.00,,,0.01,Wunderground v.1.15,2013-02-12 07:28:00,
2013-02-12 01:37:00,55.4,54.8,30.04,NNE,19,3.0,3.0,98,0.00,,,0.01,Wunderground v.1.15,2013-02-12 07:37:00,
2013-02-12 01:42:00,55.4,54.8,30.03,NNE,29,1.0,3.0,98,0.00,,,0.01,Wunderground v.1.15,2013-02-12 07:42:00,
2013-02-12 01:47:00,55.3,54.7,30.03,NNE,30,2.0,3.0,98,0.00,,,0.01,Wunderground v.1.15,2013-02-12 07:47:00,
2013-02-12 01:52:00,55.3,54.7,30.04,NNE,22,2.0,5.0,98,0.00,,,0.01,Wunderground v.1.15,2013-02-12 07:52:00,
2013-02-12 01:58:00,55.3,54.7,30.04,NNE,32,2.0,5.0,98,0.00,,,0.01,Wunderground v.1.15,2013-02-12 07:58:00,
2013-02-12 02:08:00,55.2,54.6,30.03,NNE,29,4.0,4.0,98,0.00,,,0.01,Wunderground v.1.15,2013-02-12 08:08:00,
2013-02-12 02:13:00,55.2,54.6,30.02,NE,35,4.0,4.0,98,0.00,,,0.01,Wunderground v.1.15,2013-02-12 08:13:00,
2013-02-12 02:18:00,55.1,54.5,30.02,NNE,32,4.0,4.0,98,0.00,,,0.01,Wunderground v.1.15,2013-02-12 08:18:00,
2013-02-12 02:23:00,55.1,54.5,30.02,NNE,26,3.0,3.0,98,0.00,,,0.01,Wunderground v.1.15,2013-02-12 08:23:00,
2013-02-12 02:33:00,55.1,54.5,30.01,NNE,13,3.0,3.0,98,0.00,,,0.01,Wunderground v.1.15,2013-02-12 08:33:00,
2013-02-12 02:38:00,55.1,54.5,30.02,NNE,22,3.0,3.0,98,0.00,,,0.01,Wunderground v.1.15,2013-02-12 08:38:00,
2013-02-12 02:43:00,55.1,54.5,30.03,NNE,29,3.0,3.0,98,0.00,,,0.01,Wunderground v.1.15,2013-02-12 08:43:00,
2013-02-12 02:48:00,55.1,54.5,30.03,NE,37,3.0,3.0,98,0.00,,,0.01,Wunderground v.1.15,2013-02-12 08:48:00,
2013-02-12 02:53:00,55.0,54.4,30.03,North,360,3.0,3.0,98,0.00,,,0.01,Wunderground v.1.15,2013-02-12 08:53:00,
2013-02-12 03:03:00,55.0,54.2,30.02,NE,45,4.0,4.0,97,0.00,,,0.01,Wunderground v.1.15,2013-02-12 09:03:00,
2013-02-12 03:08:00,55.0,54.2,30.02,North,360,3.0,4.0,97,0.00,,,0.01,Wunderground v.1.15,2013-02-12 09:08:00,
2013-02-12 03:13:00,55.0,54.2,30.01,NE,52,2.0,2.0,97,0.00,,,0.01,Wunderground v.1.15,2013-02-12 09:13:00,
2013-02-12 03:18:00,54.9,54.1,30.00,East,98,2.0,2.0,97,0.00,,,0.01,Wunderground v.1.15,2013-02-12 09:18:00,
2013-02-12 03:23:00,54.9,54.1,30.00,ENE,69,2.0,2.0,97,0.00,,,0.01,Wunderground v.1.15,2013-02-12 09:23:00,
2013-02-12 03:28:00,54.9,54.1,30.00,East,101,1.0,4.0,97,0.00,,,0.01,Wunderground v.1.15,2013-02-12 09:28:00,
2013-02-12 03:38:00,54.9,54.1,29.99,NE,39,1.0,4.0,97,0.00,,,0.01,Wunderground v.1.15,2013-02-12 09:38:00,
2013-02-12 03:43:00,55.0,54.2,29.99,NNE,28,1.0,1.0,97,0.00,,,0.01,Wunderground v.1.15,2013-02-12 09:43:00,
2013-02-12 03:48:00,55.0,54.2,29.99,NE,45,0.0,1.0,97,0.00,,,0.01,Wunderground v.1.15,2013-02-12 09:48:00,
2013-02-12 03:53:00,55.1,54.3,29.99,NE,44,1.0,1.0,97,0.00,,,0.01,Wunderground v.1.15,2013-02-12 09:53:00,
2013-02-12 03:58:00,55.2,54.6,30.00,North,355,1.0,1.0,98,0.00,,,0.01,Wunderground v.1.15,2013-02-12 09:58:00,
2013-02-12 04:08:00,55.3,54.5,30.00,NNE,18,1.0,3.0,97,0.00,,,0.01,Wunderground v.1.15,2013-02-12 10:08:00,
2013-02-12 04:13:00,55.3,54.5,30.00,NE,40,3.0,3.0,97,0.00,,,0.01,Wunderground v.1.15,2013-02-12 10:13:00,
2013-02-12 04:18:00,55.3,54.5,30.00,NNE,26,3.0,3.0,97,0.00,,,0.01,Wunderground v.1.15,2013-02-12 10:18:00,
2013-02-12 04:23:00,55.3,54.5,30.00,North,360,3.0,5.0,97,0.00,,,0.01,Wunderground v.1.15,2013-02-12 10:23:00,
2013-02-12 04:28:00,55.3,54.5,30.00,NNE,17,3.0,5.0,97,0.00,,,0.01,Wunderground v.1.15,2013-02-12 10:28:00,
2013-02-12 04:33:00,55.2,54.4,30.00,NNE,24,3.0,3.0,97,0.00,,,0.01,Wunderground v.1.15,2013-02-12 10:33:00,
2013-02-12 04:43:00,55.0,54.2,29.99,NNE,26,4.0,4.0,97,0.00,,,0.01,Wunderground v.1.15,2013-02-12 10:43:00,
2013-02-12 04:48:00,55.0,54.2,29.99,NNE,15,4.0,5.0,97,0.00,,,0.01,Wunderground v.1.15,2013-02-12 10:48:00,
2013-02-12 04:53:00,54.9,54.1,29.99,NE,38,4.0,4.0,97,0.00,,,0.01,Wunderground v.1.15,2013-02-12 10:53:00,
2013-02-12 04:58:00,54.8,54.0,29.98,NNE,21,4.0,4.0,97,0.00,,,0.01,Wunderground v.1.15,2013-02-12 10:58:00,
2013-02-12 05:03:00,54.8,54.2,29.99,NNE,28,3.0,3.0,98,0.00,,,0.01,Wunderground v.1.15,2013-02-12 11:03:00,
2013-02-12 05:08:00,54.7,54.1,29.98,NNE,13,3.0,3.0,98,0.00,,,0.01,Wunderground v.1.15,2013-02-12 11:08:00,
2013-02-12 05:13:00,54.7,54.1,29.99,NNE,32,2.0,2.0,98,0.00,,,0.01,Wunderground v.1.15,2013-02-12 11:13:00,
2013-02-12 05:18:00,54.7,54.1,29.99,NNE,17,1.0,3.0,98,0.00,,,0.01,Wunderground v.1.15,2013-02-12 11:18:00,
2013-02-12 05:23:00,54.6,54.0,29.98,NE,49,2.0,4.0,98,0.00,,,0.01,Wunderground v.1.15,2013-02-12 11:23:00,
2013-02-12 05:32:00,54.6,54.0,29.97,NE,52,1.0,1.0,98,0.00,,,0.01,Wunderground v.1.15,2013-02-12 11:32:00,
2013-02-12 05:37:00,54.6,54.0,29.97,NE,45,1.0,1.0,98,0.00,,,0.01,Wunderground v.1.15,2013-02-12 11:37:00,
2013-02-12 05:43:00,54.6,54.0,29.97,NE,38,1.0,4.0,98,0.00,,,0.01,Wunderground v.1.15,2013-02-12 11:43:00,
2013-02-12 05:48:00,54.5,53.9,29.97,NNE,28,1.0,4.0,98,0.00,,,0.01,Wunderground v.1.15,2013-02-12 11:48:00,
2013-02-12 05:53:00,54.5,53.9,29.97,NE,42,1.0,1.0,98,0.00,,,0.01,Wunderground v.1.15,2013-02-12 11:53:00,
2013-02-12 05:58:00,54.5,53.9,29.97,NE,39,1.0,1.0,98,0.00,,,0.01,Wunderground v.1.15,2013-02-12 11:58:00,
2013-02-12 06:03:00,54.5,53.9,29.96,NE,36,1.0,2.0,98,0.00,,,0.01,Wunderground v.1.15,2013-02-12 12:03:00,
2013-02-12 06:12:00,54.5,53.9,29.97,NE,51,2.0,2.0,98,0.00,,,0.01,Wunderground v.1.15,2013-02-12 12:12:00,
2013-02-12 06:18:00,54.5,53.9,29.97,NNE,19,2.0,2.0,98,0.00,,,0.01,Wunderground v.1.15,2013-02-12 12:18:00,
2013-02-12 06:23:00,54.5,53.9,29.97,East,90,1.0,1.0,98,0.00,,,0.01,Wunderground v.1.15,2013-02-12 12:23:00,
2013-02-12 06:28:00,54.5,53.9,29.97,ENE,61,1.0,2.0,98,0.00,,,0.01,Wunderground v.1.15,2013-02-12 12:28:00,
2013-02-12 06:37:00,54.4,53.8,29.97,North,355,1.0,2.0,98,0.00,,,0.01,Wunderground v.1.15,2013-02-12 12:37:00,
2013-02-12 06:42:00,54.5,53.9,29.97,ESE,108,2.0,2.0,98,0.00,,,0.01,Wunderground v.1.15,2013-02-12 12:42:00,
2013-02-12 06:48:00,54.5,53.9,29.96,NE,52,1.0,2.0,98,0.00,,,0.01,Wunderground v.1.15,2013-02-12 12:48:00,
2013-02-12 06:53:00,54.5,53.9,29.96,North,355,0.0,3.0,98,0.00,,,0.01,Wunderground v.1.15,2013-02-12 12:53:00,
2013-02-12 06:58:00,54.5,53.9,29.96,NE,44,1.0,3.0,98,0.00,,,0.01,Wunderground v.1.15,2013-02-12 12:58:00,
2013-02-12 07:03:00,54.5,53.9,29.96,NE,36,0.0,0.0,98,0.00,,,0.01,Wunderground v.1.15,2013-02-12 13:03:00,
2013-02-12 07:08:00,54.5,53.9,29.96,ENE,74,0.0,0.0,98,0.00,,,0.01,Wunderground v.1.15,2013-02-12 13:08:00,
2013-02-12 07:13:00,54.6,54.0,29.95,ENE,74,0.0,0.0,98,0.00,,,0.01,Wunderground v.1.15,2013-02-12 13:13:00,
2013-02-12 07:23:00,54.6,54.0,29.95,ENE,65,0.0,0.0,98,0.00,,,0.02,Wunderground v.1.15,2013-02-12 13:23:00,
2013-02-12 07:28:00,54.7,54.1,29.95,NE,34,0.0,0.0,98,0.00,,,0.02,Wunderground v.1.15,2013-02-12 13:28:00,
2013-02-12 07:33:00,54.7,54.1,29.95,NE,39,0.0,2.0,98,0.00,,,0.02,Wunderground v.1.15,2013-02-12 13:33:00,
2013-02-12 07:38:00,54.8,54.2,29.95,East,80,1.0,2.0,98,0.00,,,0.02,Wunderground v.1.15,2013-02-12 13:38:00,
2013-02-12 07:43:00,54.8,54.2,29.94,NE,38,0.0,0.0,98,0.00,,,0.02,Wunderground v.1.15,2013-02-12 13:43:00,
2013-02-12 07:48:00,54.9,54.3,29.95,NNE,25,0.0,0.0,98,0.00,,,0.02,Wunderground v.1.15,2013-02-12 13:48:00,
2013-02-12 07:58:00,54.8,54.2,29.95,North,351,1.0,1.0,98,0.00,,,0.02,Wunderground v.1.15,2013-02-12 13:58:00,
2013-02-12 08:02:00,54.9,54.3,29.95,NE,45,1.0,1.0,98,0.00,,,0.02,Wunderground v.1.15,2013-02-12 14:02:00,
2013-02-12 08:08:00,54.9,54.3,29.95,NNE,28,1.0,1.0,98,0.00,,,0.02,Wunderground v.1.15,2013-02-12 14:08:00,
2013-02-12 08:13:00,55.0,54.4,29.95,NE,40,0.0,0.0,98,0.00,,,0.02,Wunderground v.1.15,2013-02-12 14:13:00,
2013-02-12 08:18:00,55.1,54.5,29.96,ENE,59,0.0,0.0,98,0.00,,,0.02,Wunderground v.1.15,2013-02-12 14:18:00,
2013-02-12 08:28:00,55.2,54.6,29.96,ESE,105,0.0,1.0,98,0.00,,,0.02,Wunderground v.1.15,2013-02-12 14:28:00,
2013-02-12 08:33:00,55.2,54.6,29.96,East,87,0.0,0.0,98,0.00,,,0.02,Wunderground v.1.15,2013-02-12 14:33:00,
2013-02-12 08:38:00,55.3,54.7,29.96,East,88,0.0,0.0,98,0.00,,,0.02,Wunderground v.1.15,2013-02-12 14:38:00,
2013-02-12 08:43:00,55.4,54.8,29.97,NNE,28,0.0,0.0,98,0.00,,,0.02,Wunderground v.1.15,2013-02-12 14:43:00,
2013-02-12 08:48:00,55.4,54.8,29.96,NNW,330,1.0,1.0,98,0.00,,,0.02,Wunderground v.1.15,2013-02-12 14:48:00,
2013-02-12 08:53:00,55.5,54.9,29.96,NNE,28,1.0,1.0,98,0.00,,,0.02,Wunderground v.1.15,2013-02-12 14:53:00,
2013-02-12 09:03:00,55.5,55.2,29.96,North,10,1.0,1.0,99,0.00,,,0.02,Wunderground v.1.15,2013-02-12 15:03:00,
2013-02-12 09:08:00,55.6,55.0,29.96,NE,34,1.0,1.0,98,0.00,,,0.02,Wunderground v.1.15,2013-02-12 15:08:00,
2013-02-12 09:13:00,55.7,55.4,29.96,NNE,24,1.0,1.0,99,0.00,,,0.02,Wunderground v.1.15,2013-02-12 15:13:00,
2013-02-12 09:18:00,55.7,55.4,29.96,NE,40,1.0,1.0,99,0.00,,,0.02,Wunderground v.1.15,2013-02-12 15:18:00,
2013-02-12 09:23:00,55.7,55.1,29.95,ENE,72,0.0,0.0,98,0.00,,,0.02,Wunderground v.1.15,2013-02-12 15:23:00,
2013-02-12 09:33:00,55.8,55.2,29.95,SSE,161,0.0,0.0,98,0.00,,,0.02,Wunderground v.1.15,2013-02-12 15:33:00,
2013-02-12 09:38:00,55.9,55.3,29.95,NE,55,0.0,0.0,98,0.00,,,0.02,Wunderground v.1.15,2013-02-12 15:38:00,
2013-02-12 09:43:00,55.9,55.3,29.95,NE,44,0.0,0.0,98,0.00,,,0.02,Wunderground v.1.15,2013-02-12 15:43:00,
2013-02-12 09:48:00,55.9,55.3,29.95,ENE,71,0.0,0.0,98,0.00,,,0.02,Wunderground v.1.15,2013-02-12 15:48:00,
2013-02-12 09:53:00,56.0,55.4,29.94,ENE,78,0.0,0.0,98,0.00,,,0.02,Wunderground v.1.15,2013-02-12 15:53:00,
2013-02-12 09:58:00,56.0,55.4,29.94,ENE,65,0.0,0.0,98,0.00,,,0.02,Wunderground v.1.15,2013-02-12 15:58:00,
2013-02-12 10:08:00,56.1,55.5,29.95,East,101,0.0,0.0,98,0.00,,,0.02,Wunderground v.1.15,2013-02-12 16:08:00,
2013-02-12 10:13:00,56.2,55.9,29.95,NE,55,0.0,3.0,99,0.00,,,0.02,Wunderground v.1.15,2013-02-12 16:13:00,
2013-02-12 10:18:00,56.3,56.0,29.94,NE,49,0.0,3.0,99,0.00,,,0.02,Wunderground v.1.15,2013-02-12 16:18:00,
2013-02-12 10:23:00,56.3,56.0,29.94,ENE,57,0.0,0.0,99,0.00,,,0.02,Wunderground v.1.15,2013-02-12 16:23:00,
2013-02-12 10:28:00,56.4,55.8,29.94,ESE,110,0.0,0.0,98,0.00,,,0.02,Wunderground v.1.15,2013-02-12 16:28:00,
2013-02-12 10:38:00,56.5,56.2,29.94,East,82,0.0,0.0,99,0.00,,,0.02,Wunderground v.1.15,2013-02-12 16:38:00,
2013-02-12 10:42:00,56.5,55.9,29.93,East,88,0.0,0.0,98,0.00,,,0.02,Wunderground v.1.15,2013-02-12 16:42:00,
2013-02-12 10:47:00,56.7,56.4,29.93,East,87,0.0,0.0,99,0.00,,,0.02,Wunderground v.1.15,2013-02-12 16:47:00,
2013-02-12 10:52:00,56.7,56.1,29.92,East,80,0.0,0.0,98,0.00,,,0.02,Wunderground v.1.15,2013-02-12 16:52:00,
2013-02-12 10:57:00,56.7,56.4,29.92,ENE,69,0.0,1.0,99,0.00,,,0.02,Wunderground v.1.15,2013-02-12 16:57:00,
2013-02-12 11:02:00,56.9,56.6,29.91,East,98,1.0,1.0,99,0.00,,,0.02,Wunderground v.1.15,2013-02-12 17:02:00,
2013-02-12 11:08:00,57.0,56.7,29.92,NNE,24,0.0,1.0,99,0.00,,,0.02,Wunderground v.1.15,2013-02-12 17:08:00,
2013-02-12 11:13:00,57.1,56.8,29.92,East,100,0.0,0.0,99,0.00,,,0.02,Wunderground v.1.15,2013-02-12 17:13:00,
2013-02-12 11:18:00,57.1,56.8,29.91,East,99,0.0,0.0,99,0.00,,,0.02,Wunderground v.1.15,2013-02-12 17:18:00,
2013-02-12 11:23:00,57.1,56.8,29.91,ESE,107,0.0,2.0,99,0.00,,,0.02,Wunderground v.1.15,2013-02-12 17:23:00,
2013-02-12 11:28:00,57.3,57.0,29.91,East,86,0.0,2.0,99,0.00,,,0.03,Wunderground v.1.15,2013-02-12 17:28:00,
2013-02-12 11:33:00,57.3,57.0,29.91,ESE,111,0.0,0.0,99,0.00,,,0.03,Wunderground v.1.15,2013-02-12 17:33:00,
2013-02-12 11:43:00,57.6,57.3,29.90,ESE,104,0.0,0.0,99,0.00,,,0.03,Wunderground v.1.15,2013-02-12 17:43:00,
2013-02-12 11:48:00,57.7,57.4,29.90,ESE,105,0.0,0.0,99,0.00,,,0.03,Wunderground v.1.15,2013-02-12 17:48:00,
2013-02-12 11:58:00,57.8,57.5,29.89,ESE,103,0.0,0.0,99,0.00,,,0.03,Wunderground v.1.15,2013-02-12 17:58:00,
2013-02-12 12:02:00,58.0,57.7,29.89,ESE,113,1.0,1.0,99,0.00,,,0.03,Wunderground v.1.15,2013-02-12 18:02:00,
2013-02-12 12:08:00,58.1,57.8,29.88,ESE,103,1.0,1.0,99,0.00,,,0.03,Wunderground v.1.15,2013-02-12 18:08:00,
2013-02-12 12:18:00,58.2,57.9,29.87,ENE,58,0.0,0.0,99,0.00,,,0.03,Wunderground v.1.15,2013-02-12 18:18:00,
2013-02-12 12:23:00,58.3,58.0,29.87,East,99,0.0,0.0,99,0.00,,,0.03,Wunderground v.1.15,2013-02-12 18:23:00,
2013-02-12 12:28:00,58.4,58.1,29.86,ENE,77,0.0,0.0,99,0.00,,,0.03,Wunderground v.1.15,2013-02-12 18:28:00,
2013-02-12 12:33:00,58.4,58.1,29.86,ENE,78,0.0,0.0,99,0.00,,,0.03,Wunderground v.1.15,2013-02-12 18:33:00,
2013-02-12 12:38:00,58.4,58.1,29.86,ENE,78,0.0,0.0,99,0.00,,,0.03,Wunderground v.1.15,2013-02-12 18:38:00,
2013-02-12 12:47:00,58.5,58.2,29.84,ENE,77,0.0,0.0,99,0.00,,,0.03,Wunderground v.1.15,2013-02-12 18:47:00,
2013-02-12 12:52:00,58.6,58.3,29.84,ENE,78,0.0,0.0,99,0.00,,,0.03,Wunderground v.1.15,2013-02-12 18:52:00,
2013-02-12 12:57:00,58.6,58.3,29.84,ENE,78,0.0,0.0,99,0.00,,,0.03,Wunderground v.1.15,2013-02-12 18:57:00,
2013-02-12 13:02:00,58.7,58.4,29.83,ENE,78,0.0,0.0,99,0.00,,,0.03,Wunderground v.1.15,2013-02-12 19:02:00,
2013-02-12 13:08:00,58.7,58.4,29.83,ENE,75,0.0,0.0,99,0.00,,,0.03,Wunderground v.1.15,2013-02-12 19:08:00,
2013-02-12 13:13:00,58.9,58.6,29.83,NNW,346,0.0,0.0,99,0.00,,,0.03,Wunderground v.1.15,2013-02-12 19:13:00,
2013-02-12 13:23:00,58.8,58.5,29.82,East,88,0.0,0.0,99,0.00,,,0.03,Wunderground v.1.15,2013-02-12 19:23:00,
2013-02-12 13:28:00,58.9,58.6,29.82,East,89,0.0,0.0,99,0.00,,,0.04,Wunderground v.1.15,2013-02-12 19:28:00,
2013-02-12 13:32:00,58.9,58.6,29.81,NE,42,0.0,0.0,99,0.12,,,0.05,Wunderground v.1.15,2013-02-12 19:32:00,
2013-02-12 13:38:00,58.9,58.6,29.81,NE,40,0.0,0.0,99,0.07,,,0.05,Wunderground v.1.15,2013-02-12 19:38:00,
2013-02-12 13:43:00,59.0,58.7,29.81,NE,40,0.0,0.0,99,0.24,,,0.07,Wunderground v.1.15,2013-02-12 19:43:00,
2013-02-12 13:52:00,59.0,58.7,29.81,NE,40,0.0,0.0,99,0.16,,,0.13,Wunderground v.1.15,2013-02-12 19:52:00,
2013-02-12 13:57:00,59.0,58.7,29.81,NE,40,0.0,0.0,99,0.07,,,0.13,Wunderground v.1.15,2013-02-12 19:57:00,
2013-02-12 14:02:00,59.1,58.8,29.80,NE,40,0.0,0.0,99,0.04,,,0.13,Wunderground v.1.15,2013-02-12 20:02:00,
2013-02-12 14:08:00,59.2,58.9,29.80,NE,40,0.0,0.0,99,0.00,,,0.13,Wunderground v.1.15,2013-02-12 20:08:00,
2013-02-12 14:13:00,59.3,59.0,29.80,NE,40,0.0,0.0,99,0.00,,,0.13,Wunderground v.1.15,2013-02-12 20:13:00,
2013-02-12 14:18:00,59.4,59.1,29.79,NE,40,0.0,0.0,99,0.00,,,0.13,Wunderground v.1.15,2013-02-12 20:18:00,
2013-02-12 14:23:00,59.6,59.3,29.78,NE,40,0.0,0.0,99,0.00,,,0.14,Wunderground v.1.15,2013-02-12 20:23:00,
2013-02-12 14:28:00,59.7,59.4,29.78,NE,42,0.0,0.0,99,0.00,,,0.14,Wunderground v.1.15,2013-02-12 20:28:00,
2013-02-12 14:33:00,59.6,59.3,29.78,NE,42,0.0,0.0,99,0.00,,,0.14,Wunderground v.1.15,2013-02-12 20:33:00,
2013-02-12 14:38:00,59.7,59.4,29.79,NE,42,0.0,0.0,99,0.00,,,0.14,Wunderground v.1.15,2013-02-12 20:38:00,
2013-02-12 14:47:00,59.7,59.4,29.79,NE,42,0.0,0.0,99,0.00,,,0.14,Wunderground v.1.15,2013-02-12 20:47:00,
2013-02-12 14:52:00,59.8,59.5,29.78,NE,42,0.0,0.0,99,0.00,,,0.14,Wunderground v.1.15,2013-02-12 20:52:00,
2013-02-12 14:58:00,59.8,59.5,29.78,NE,42,0.0,0.0,99,0.00,,,0.14,Wunderground v.1.15,2013-02-12 20:58:00,
2013-02-12 15:08:00,60.0,59.7,29.77,NE,42,0.0,0.0,99,0.00,,,0.14,Wunderground v.1.15,2013-02-12 21:08:00,
2013-02-12 15:18:00,60.1,59.8,29.77,NE,41,0.0,0.0,99,0.00,,,0.14,Wunderground v.1.15,2013-02-12 21:18:00,
2013-02-12 15:23:00,60.2,59.9,29.76,NE,42,0.0,0.0,99,0.00,,,0.14,Wunderground v.1.15,2013-02-12 21:23:00,
2013-02-12 15:28:00,60.4,60.1,29.77,NE,41,0.0,0.0,99,0.00,,,0.14,Wunderground v.1.15,2013-02-12 21:28:00,
2013-02-12 15:33:00,60.4,60.1,29.76,NE,42,0.0,0.0,99,0.00,,,0.14,Wunderground v.1.15,2013-02-12 21:33:00,
2013-02-12 15:43:00,60.3,60.0,29.75,NE,42,0.0,0.0,99,0.00,,,0.14,Wunderground v.1.15,2013-02-12 21:43:00,
2013-02-12 15:48:00,60.5,60.2,29.76,NE,42,0.0,0.0,99,0.00,,,0.14,Wunderground v.1.15,2013-02-12 21:48:00,
2013-02-12 15:53:00,60.6,60.3,29.75,ENE,61,0.0,0.0,99,0.00,,,0.14,Wunderground v.1.15,2013-02-12 21:53:00,
2013-02-12 15:58:00,60.8,60.5,29.75,ESE,109,0.0,0.0,99,0.00,,,0.14,Wunderground v.1.15,2013-02-12 21:58:00,
2013-02-12 16:08:00,61.1,60.8,29.75,ESE,109,0.0,0.0,99,0.00,,,0.14,Wunderground v.1.15,2013-02-12 22:08:00,
2013-02-12 16:13:00,61.3,61.0,29.75,ESE,109,0.0,0.0,99,0.00,,,0.14,Wunderground v.1.15,2013-02-12 22:13:00,
2013-02-12 16:18:00,61.5,61.2,29.75,ESE,109,0.0,0.0,99,0.00,,,0.14,Wunderground v.1.15,2013-02-12 22:18:00,
2013-02-12 16:23:00,61.7,61.4,29.75,ESE,109,0.0,0.0,99,0.00,,,0.14,Wunderground v.1.15,2013-02-12 22:23:00,
2013-02-12 16:33:00,61.9,61.6,29.75,ESE,109,0.0,0.0,99,0.00,,,0.14,Wunderground v.1.15,2013-02-12 22:33:00,
2013-02-12 16:38:00,62.1,61.8,29.75,ESE,109,0.0,0.0,99,0.00,,,0.14,Wunderground v.1.15,2013-02-12 22:38:00,
2013-02-12 16:43:00,62.2,61.9,29.75,ESE,109,0.0,0.0,99,0.00,,,0.14,Wunderground v.1.15,2013-02-12 22:43:00,
2013-02-12 16:48:00,62.5,62.2,29.74,ESE,109,0.0,0.0,99,0.00,,,0.14,Wunderground v.1.15,2013-02-12 22:48:00,
2013-02-12 16:53:00,62.7,62.4,29.75,ESE,109,0.0,0.0,99,0.00,,,0.14,Wunderground v.1.15,2013-02-12 22:53:00,
2013-02-12 16:58:00,63.0,62.7,29.74,ESE,109,0.0,0.0,99,0.00,,,0.14,Wunderground v.1.15,2013-02-12 22:58:00,
2013-02-12 17:03:00,63.1,62.8,29.74,ESE,109,0.0,0.0,99,0.00,,,0.14,Wunderground v.1.15,2013-02-12 23:03:00,
2013-02-12 17:08:00,63.4,63.1,29.74,ESE,109,0.0,0.0,99,0.00,,,0.14,Wunderground v.1.15,2013-02-12 23:08:00,
2013-02-12 17:13:00,63.4,63.1,29.74,ESE,109,0.0,0.0,99,0.00,,,0.14,Wunderground v.1.15,2013-02-12 23:13:00,
2013-02-12 17:18:00,63.1,62.8,29.74,ESE,109,0.0,0.0,99,0.00,,,0.14,Wunderground v.1.15,2013-02-12 23:18:00,
2013-02-12 17:23:00,63.1,62.8,29.74,ESE,109,0.0,0.0,99,0.00,,,0.14,Wunderground v.1.15,2013-02-12 23:23:00,
2013-02-12 17:28:00,63.6,63.3,29.74,ESE,109,0.0,0.0,99,0.00,,,0.14,Wunderground v.1.15,2013-02-12 23:28:00,
2013-02-12 17:37:00,65.0,64.7,29.74,ESE,109,0.0,0.0,99,0.00,,,0.14,Wunderground v.1.15,2013-02-12 23:37:00,
2013-02-12 17:43:00,65.8,65.5,29.74,SSW,199,0.0,0.0,99,0.00,,,0.14,Wunderground v.1.15,2013-02-12 23:43:00,
2013-02-12 17:48:00,66.2,65.9,29.74,SSW,199,0.0,0.0,99,0.00,,,0.14,Wunderground v.1.15,2013-02-12 23:48:00,
2013-02-12 17:53:00,66.8,66.5,29.74,SSW,200,0.0,0.0,99,0.00,,,0.14,Wunderground v.1.15,2013-02-12 23:53:00,
2013-02-12 17:58:00,65.5,65.2,29.74,SW,215,0.0,0.0,99,0.00,,,0.14,Wunderground v.1.15,2013-02-12 23:58:00,
2013-02-12 18:07:00,67.1,66.8,29.75,SSW,213,0.0,0.0,99,0.16,,,0.16,Wunderground v.1.15,2013-02-13 00:07:00,
2013-02-12 18:17:00,64.9,64.6,29.75,WNW,294,0.0,0.0,99,0.05,,,0.16,Wunderground v.1.15,2013-02-13 00:17:00,
2013-02-12 18:22:00,64.8,64.5,29.75,WNW,294,0.0,0.0,99,0.00,,,0.16,Wunderground v.1.15,2013-02-13 00:22:00,
2013-02-12 18:27:00,65.0,64.7,29.75,WNW,294,0.0,0.0,99,0.00,,,0.16,Wunderground v.1.15,2013-02-13 00:27:00,
2013-02-12 18:32:00,65.1,64.8,29.75,WNW,294,0.0,0.0,99,0.00,,,0.16,Wunderground v.1.15,2013-02-13 00:32:00,
2013-02-12 18:37:00,65.1,64.8,29.75,WNW,294,0.0,0.0,99,0.00,,,0.16,Wunderground v.1.15,2013-02-13 00:37:00,
2013-02-12 18:42:00,65.2,64.9,29.75,WNW,294,0.0,0.0,99,0.00,,,0.16,Wunderground v.1.15,2013-02-13 00:42:00,
2013-02-12 18:52:00,65.4,65.1,29.75,WNW,294,0.0,0.0,99,0.00,,,0.16,Wunderground v.1.15,2013-02-13 00:52:00,
2013-02-12 18:57:00,65.5,65.5,29.75,WNW,294,0.0,0.0,100,0.00,,,0.16,Wunderground v.1.15,2013-02-13 00:57:00,
2013-02-12 19:02:00,65.6,65.3,29.76,WNW,294,0.0,0.0,99,0.00,,,0.16,Wunderground v.1.15,2013-02-13 01:02:00,
2013-02-12 19:07:00,65.4,65.4,29.76,WNW,294,0.0,0.0,100,0.00,,,0.16,Wunderground v.1.15,2013-02-13 01:07:00,
2013-02-12 19:12:00,65.3,65.0,29.76,WNW,294,0.0,0.0,99,0.00,,,0.16,Wunderground v.1.15,2013-02-13 01:12:00,
2013-02-12 19:18:00,65.4,65.1,29.76,WNW,294,0.0,0.0,99,0.00,,,0.16,Wunderground v.1.15,2013-02-13 01:18:00,
2013-02-12 19:23:00,65.3,65.0,29.76,NNW,331,0.0,0.0,99,0.00,,,0.16,Wunderground v.1.15,2013-02-13 01:23:00,
2013-02-12 19:32:00,65.5,65.5,29.77,SW,232,0.0,0.0,100,0.00,,,0.16,Wunderground v.1.15,2013-02-13 01:32:00,
2013-02-12 19:37:00,65.9,65.6,29.77,SW,233,0.0,0.0,99,0.00,,,0.16,Wunderground v.1.15,2013-02-13 01:37:00,
2013-02-12 19:42:00,66.2,65.9,29.77,SW,233,0.0,0.0,99,0.00,,,0.16,Wunderground v.1.15,2013-02-13 01:42:00,
2013-02-12 19:47:00,66.6,66.3,29.77,SW,233,0.0,0.0,99,0.00,,,0.16,Wunderground v.1.15,2013-02-13 01:47:00,
2013-02-12 19:53:00,66.8,66.5,29.77,SW,233,0.0,0.0,99,0.00,,,0.16,Wunderground v.1.15,2013-02-13 01:53:00,
2013-02-12 19:58:00,67.5,67.5,29.76,SW,236,0.0,0.0,100,0.00,,,0.16,Wunderground v.1.15,2013-02-13 01:58:00,
2013-02-12 20:08:00,67.6,67.6,29.77,SW,236,0.0,0.0,100,0.00,,,0.16,Wunderground v.1.15,2013-02-13 02:08:00,
2013-02-12 20:13:00,67.6,67.6,29.77,SW,236,0.0,0.0,100,0.00,,,0.16,Wunderground v.1.15,2013-02-13 02:13:00,
2013-02-12 20:18:00,67.5,67.5,29.77,SW,236,0.0,0.0,100,0.00,,,0.16,Wunderground v.1.15,2013-02-13 02:18:00,
2013-02-12 20:28:00,67.4,67.4,29.77,SW,236,0.0,0.0,100,0.00,,,0.16,Wunderground v.1.15,2013-02-13 02:28:00,
2013-02-12 20:33:00,67.4,67.4,29.77,SW,236,0.0,0.0,100,0.00,,,0.16,Wunderground v.1.15,2013-02-13 02:33:00,
2013-02-12 20:38:00,67.4,67.4,29.77,SW,236,0.0,0.0,100,0.00,,,0.16,Wunderground v.1.15,2013-02-13 02:38:00,
2013-02-12 20:43:00,67.5,67.5,29.76,SW,236,0.0,0.0,100,0.00,,,0.16,Wunderground v.1.15,2013-02-13 02:43:00,
2013-02-12 20:48:00,67.4,67.4,29.76,SW,236,0.0,0.0,100,0.00,,,0.16,Wunderground v.1.15,2013-02-13 02:48:00,
2013-02-12 20:58:00,67.6,67.6,29.76,SW,236,0.0,0.0,100,0.00,,,0.16,Wunderground v.1.15,2013-02-13 02:58:00,
2013-02-12 21:03:00,67.7,67.7,29.75,SW,234,0.0,0.0,100,0.00,,,0.16,Wunderground v.1.15,2013-02-13 03:03:00,
2013-02-12 21:08:00,67.9,67.6,29.76,SW,234,0.0,0.0,99,0.00,,,0.16,Wunderground v.1.15,2013-02-13 03:08:00,
2013-02-12 21:13:00,67.9,67.6,29.76,SW,235,0.0,0.0,99,0.00,,,0.16,Wunderground v.1.15,2013-02-13 03:13:00,
2013-02-12 21:18:00,67.9,67.6,29.76,SW,235,0.0,0.0,99,0.00,,,0.16,Wunderground v.1.15,2013-02-13 03:18:00,
2013-02-12 21:23:00,68.0,67.7,29.76,SW,235,0.0,0.0,99,0.00,,,0.16,Wunderground v.1.15,2013-02-13 03:23:00,
2013-02-12 21:33:00,67.9,67.6,29.77,SW,234,0.0,0.0,99,0.00,,,0.16,Wunderground v.1.15,2013-02-13 03:33:00,
2013-02-12 21:38:00,67.9,67.6,29.77,SW,235,0.0,0.0,99,0.00,,,0.16,Wunderground v.1.15,2013-02-13 03:38:00,
2013-02-12 21:43:00,67.9,67.6,29.77,SW,235,0.0,0.0,99,0.00,,,0.16,Wunderground v.1.15,2013-02-13 03:43:00,
2013-02-12 21:48:00,67.8,67.5,29.77,SW,235,0.0,0.0,99,0.00,,,0.16,Wunderground v.1.15,2013-02-13 03:48:00,
2013-02-12 21:53:00,67.7,67.4,29.78,SW,236,0.0,0.0,99,0.00,,,0.16,Wunderground v.1.15,2013-02-13 03:53:00,
2013-02-12 22:03:00,67.6,67.6,29.78,SW,236,0.0,0.0,100,0.00,,,0.16,Wunderground v.1.15,2013-02-13 04:03:00,
2013-02-12 22:08:00,67.5,67.5,29.78,WSW,237,0.0,0.0,100,0.00,,,0.16,Wunderground v.1.15,2013-02-13 04:08:00,
2013-02-12 22:13:00,67.4,67.4,29.79,WSW,240,0.0,0.0,100,0.00,,,0.16,Wunderground v.1.15,2013-02-13 04:13:00,
2013-02-12 22:18:00,67.3,67.0,29.79,WSW,242,0.0,0.0,99,0.00,,,0.16,Wunderground v.1.15,2013-02-13 04:18:00,
2013-02-12 22:23:00,67.3,67.0,29.79,SW,215,0.0,1.0,99,0.00,,,0.16,Wunderground v.1.15,2013-02-13 04:23:00,
2013-02-12 22:28:00,67.1,66.8,29.79,WSW,239,1.0,1.0,99,0.00,,,0.16,Wunderground v.1.15,2013-02-13 04:28:00,
2013-02-12 22:38:00,66.9,66.6,29.78,WNW,285,0.0,1.0,99,0.00,,,0.16,Wunderground v.1.15,2013-02-13 04:38:00,
2013-02-12 22:43:00,66.7,66.4,29.78,WNW,283,0.0,0.0,99,0.00,,,0.16,Wunderground v.1.15,2013-02-13 04:43:00,
2013-02-12 22:53:00,66.3,66.0,29.78,WNW,283,0.0,0.0,99,0.00,,,0.16,Wunderground v.1.15,2013-02-13 04:53:00,
2013-02-12 22:58:00,66.3,66.0,29.78,WNW,283,0.0,0.0,99,0.00,,,0.16,Wunderground v.1.15,2013-02-13 04:58:00,
2013-02-12 23:02:00,66.2,65.9,29.78,WNW,283,0.0,0.0,99,0.00,,,0.16,Wunderground v.1.15,2013-02-13 05:02:00,
2013-02-12 23:08:00,66.1,65.8,29.78,WNW,283,0.0,0.0,99,0.00,,,0.16,Wunderground v.1.15,2013-02-13 05:08:00,
2013-02-12 23:13:00,65.9,65.6,29.77,WNW,283,0.0,0.0,99,0.00,,,0.16,Wunderground v.1.15,2013-02-13 05:13:00,
2013-02-12 23:18:00,65.9,65.6,29.77,WNW,283,0.0,0.0,99,0.00,,,0.16,Wunderground v.1.15,2013-02-13 05:18:00,
2013-02-12 23:23:00,65.8,65.5,29.78,WNW,283,0.0,0.0,99,0.00,,,0.16,Wunderground v.1.15,2013-02-13 05:23:00,
2013-02-12 23:28:00,65.7,65.4,29.78,WNW,283,0.0,0.0,99,0.00,,,0.16,Wunderground v.1.15,2013-02-13 05:28:00,
2013-02-12 23:33:00,65.6,65.3,29.78,WNW,283,0.0,0.0,99,0.00,,,0.16,Wunderground v.1.15,2013-02-13 05:33:00,
2013-02-12 23:43:00,65.5,65.2,29.79,WNW,283,0.0,0.0,99,0.00,,,0.16,Wunderground v.1.15,2013-02-13 05:43:00,
2013-02-12 23:48:00,65.4,65.1,29.79,WNW,283,0.0,0.0,99,0.00,,,0.16,Wunderground v.1.15,2013-02-13 05:48:00,
2013-02-12 23:53:00,65.2,64.9,29.78,West,279,0.0,0.0,99,0.00,,,0.16,Wunderground v.1.15,2013-02-13 05:53:00,
2013-02-12 23:57:00,65.0,64.7,29.79,West,264,0.0,0.0,99,0.00,,,0.00,Wunderground v.1.15,2013-02-13 05:57:00,